createdAt,value
2016-12-30T00:00:39.185Z,0
2016-12-30T00:01:39.171Z,0
2016-12-30T00:02:39.148Z,0
2016-12-30T00:03:39.134Z,0
2016-12-30T00:04:39.110Z,0
2016-12-30T00:05:39.097Z,0
2016-12-30T00:06:39.080Z,0
2016-12-30T00:07:39.061Z,0
2016-12-30T00:08:39.043Z,0
2016-12-30T00:09:39.019Z,0
2016-12-30T00:10:39.003Z,0
2016-12-30T00:11:38.988Z,0
2016-12-30T00:12:38.968Z,0
2016-12-30T00:13:38.946Z,0
2016-12-30T00:14:38.928Z,0
2016-12-30T00:15:38.913Z,0
2016-12-30T00:16:38.890Z,0
2016-12-30T00:17:38.878Z,0
2016-12-30T00:18:38.859Z,0
2016-12-30T00:19:38.841Z,0
2016-12-30T00:20:39.222Z,0
2016-12-30T00:21:38.803Z,0
2016-12-30T00:22:38.787Z,0
2016-12-30T00:23:38.771Z,0
2016-12-30T00:24:38.750Z,0
2016-12-30T00:25:38.736Z,0
2016-12-30T00:26:38.719Z,0
2016-12-30T00:27:38.697Z,0
2016-12-30T00:28:38.676Z,0
2016-12-30T00:29:38.657Z,0
2016-12-30T00:30:38.633Z,0
2016-12-30T00:31:38.626Z,0
2016-12-30T00:32:39.004Z,0
2016-12-30T00:33:38.585Z,0
2016-12-30T00:34:38.564Z,0
2016-12-30T00:35:38.583Z,0
2016-12-30T00:36:38.525Z,0
2016-12-30T00:37:38.516Z,0
2016-12-30T00:38:38.490Z,0
2016-12-30T00:39:38.473Z,0
2016-12-30T00:40:38.456Z,0
2016-12-30T00:41:38.439Z,0
2016-12-30T00:42:38.419Z,0
2016-12-30T00:43:38.406Z,0
2016-12-30T00:44:38.391Z,0
2016-12-30T00:45:38.762Z,0
2016-12-30T00:46:38.347Z,0
2016-12-30T00:47:38.328Z,0
2016-12-30T00:48:38.303Z,0
2016-12-30T00:49:38.287Z,0
2016-12-30T00:50:38.273Z,0
2016-12-30T00:51:38.251Z,0
2016-12-30T00:52:38.232Z,0
2016-12-30T00:53:38.218Z,0
2016-12-30T00:54:38.197Z,0
2016-12-30T00:55:38.180Z,0
2016-12-30T00:56:38.165Z,0
2016-12-30T00:57:38.144Z,0
2016-12-30T00:58:38.131Z,0
2016-12-30T00:59:38.106Z,0
2016-12-30T01:00:38.091Z,0
2016-12-30T01:01:38.079Z,0
2016-12-30T01:02:38.051Z,0
2016-12-30T01:03:38.037Z,0
2016-12-30T01:04:38.018Z,0
2016-12-30T01:05:37.994Z,0
2016-12-30T01:06:37.986Z,0
2016-12-30T01:07:37.961Z,0
2016-12-30T01:08:37.946Z,0
2016-12-30T01:09:37.926Z,0
2016-12-30T01:10:37.905Z,0
2016-12-30T01:11:37.893Z,0
2016-12-30T01:12:37.897Z,0
2016-12-30T01:13:37.851Z,0
2016-12-30T01:14:37.829Z,0
2016-12-30T01:15:37.813Z,0
2016-12-30T01:16:37.797Z,0
2016-12-30T01:17:37.775Z,0
2016-12-30T01:18:37.758Z,0
2016-12-30T01:19:37.734Z,0
2016-12-30T01:20:37.721Z,0
2016-12-30T01:21:37.729Z,0
2016-12-30T01:22:37.680Z,0
2016-12-30T01:23:37.667Z,0
2016-12-30T01:24:37.647Z,0
2016-12-30T01:25:37.627Z,0
2016-12-30T01:26:37.646Z,0
2016-12-30T01:27:37.597Z,0
2016-12-30T01:28:37.577Z,0
2016-12-30T01:29:37.558Z,0
2016-12-30T01:30:37.535Z,0
2016-12-30T01:31:37.517Z,0
2016-12-30T01:32:37.495Z,0
2016-12-30T01:33:37.489Z,0
2016-12-30T01:34:37.462Z,0
2016-12-30T01:35:37.442Z,0
2016-12-30T01:36:37.422Z,0
2016-12-30T01:37:37.406Z,0
2016-12-30T01:38:37.388Z,0
2016-12-30T01:39:37.372Z,0
2016-12-30T01:40:37.358Z,0
2016-12-30T01:41:37.334Z,0
2016-12-30T01:42:37.315Z,0
2016-12-30T01:43:37.301Z,0
2016-12-30T01:44:37.280Z,0
2016-12-30T01:45:37.260Z,0
2016-12-30T01:46:37.241Z,0
2016-12-30T01:47:37.219Z,0
2016-12-30T01:48:37.206Z,0
2016-12-30T01:49:37.190Z,0
2016-12-30T01:50:37.167Z,0
2016-12-30T01:51:37.147Z,0
2016-12-30T01:52:37.133Z,0
2016-12-30T01:53:37.113Z,0
2016-12-30T01:54:37.090Z,0
2016-12-30T01:55:37.077Z,0
2016-12-30T01:56:37.054Z,0
2016-12-30T01:57:37.039Z,0
2016-12-30T01:58:37.028Z,0
2016-12-30T01:59:36.997Z,0
2016-12-30T02:00:36.982Z,0
2016-12-30T02:01:36.959Z,0
2016-12-30T02:02:36.944Z,0
2016-12-30T02:03:36.927Z,0
2016-12-30T02:04:36.905Z,0
2016-12-30T02:05:36.884Z,0
2016-12-30T02:06:36.869Z,0
2016-12-30T02:07:36.861Z,0
2016-12-30T02:08:36.836Z,0
2016-12-30T02:09:36.810Z,0
2016-12-30T02:10:36.799Z,0
2016-12-30T02:11:36.774Z,0
2016-12-30T02:12:36.760Z,0
2016-12-30T02:13:36.743Z,0
2016-12-30T02:14:36.720Z,0
2016-12-30T02:15:36.704Z,0
2016-12-30T02:16:36.683Z,0
2016-12-30T02:17:36.668Z,0
2016-12-30T02:18:36.647Z,0
2016-12-30T02:19:36.628Z,0
2016-12-30T02:20:36.611Z,0
2016-12-30T02:21:36.593Z,0
2016-12-30T02:22:36.568Z,0
2016-12-30T02:23:36.554Z,0
2016-12-30T02:24:36.533Z,0
2016-12-30T02:25:36.517Z,0
2016-12-30T02:26:36.499Z,0
2016-12-30T02:27:36.482Z,0
2016-12-30T02:28:36.464Z,0
2016-12-30T02:29:36.446Z,0
2016-12-30T02:30:36.424Z,0
2016-12-30T02:31:36.406Z,0
2016-12-30T02:32:36.384Z,0
2016-12-30T02:33:36.368Z,0
2016-12-30T02:34:36.344Z,0
2016-12-30T02:35:36.334Z,0
2016-12-30T02:36:36.312Z,0
2016-12-30T02:37:36.287Z,0
2016-12-30T02:38:36.272Z,0
2016-12-30T02:39:36.250Z,0
2016-12-30T02:40:36.230Z,0
2016-12-30T02:41:36.212Z,0
2016-12-30T02:42:36.201Z,0
2016-12-30T02:43:36.175Z,0
2016-12-30T02:44:36.155Z,0
2016-12-30T02:45:36.145Z,0
2016-12-30T02:46:36.119Z,0
2016-12-30T02:47:36.102Z,0
2016-12-30T02:48:36.081Z,0
2016-12-30T02:49:36.067Z,0
2016-12-30T02:50:36.056Z,0
2016-12-30T02:51:36.024Z,0
2016-12-30T02:52:36.011Z,0
2016-12-30T02:53:35.991Z,0
2016-12-30T02:54:35.996Z,0
2016-12-30T02:55:35.953Z,0
2016-12-30T02:56:35.928Z,0
2016-12-30T02:57:35.921Z,0
2016-12-30T02:58:35.898Z,0
2016-12-30T02:59:35.874Z,0
2016-12-30T03:00:35.864Z,0
2016-12-30T03:01:35.837Z,0
2016-12-30T03:02:35.825Z,0
2016-12-30T03:03:35.807Z,0
2016-12-30T03:04:35.783Z,0
2016-12-30T03:05:35.765Z,0
2016-12-30T03:06:35.748Z,0
2016-12-30T03:07:35.729Z,0
2016-12-30T03:08:35.710Z,0
2016-12-30T03:09:35.691Z,0
2016-12-30T03:10:35.696Z,0
2016-12-30T03:11:35.659Z,0
2016-12-30T03:12:35.639Z,0
2016-12-30T03:13:35.625Z,0
2016-12-30T03:14:35.602Z,0
2016-12-30T03:15:35.580Z,0
2016-12-30T03:16:35.560Z,0
2016-12-30T03:17:35.542Z,0
2016-12-30T03:18:35.521Z,0
2016-12-30T03:19:35.905Z,0
2016-12-30T03:20:35.489Z,0
2016-12-30T03:21:35.463Z,0
2016-12-30T03:22:35.455Z,0
2016-12-30T03:23:35.433Z,0
2016-12-30T03:24:35.413Z,0
2016-12-30T03:25:35.394Z,0
2016-12-30T03:26:35.373Z,0
2016-12-30T03:27:35.355Z,0
2016-12-30T03:28:35.335Z,0
2016-12-30T03:29:35.320Z,0
2016-12-30T03:30:35.303Z,0
2016-12-30T03:31:35.282Z,0
2016-12-30T03:32:35.258Z,0
2016-12-30T03:33:35.244Z,0
2016-12-30T03:34:35.224Z,0
2016-12-30T03:35:35.205Z,0
2016-12-30T03:36:35.190Z,0
2016-12-30T03:37:35.170Z,0
2016-12-30T03:38:35.155Z,0
2016-12-30T03:39:35.133Z,0
2016-12-30T03:40:35.112Z,0
2016-12-30T03:41:35.096Z,0
2016-12-30T03:42:35.073Z,0
2016-12-30T03:43:35.056Z,0
2016-12-30T03:44:35.042Z,0
2016-12-30T03:45:35.018Z,0
2016-12-30T03:46:34.998Z,0
2016-12-30T03:47:34.975Z,0
2016-12-30T03:48:35.357Z,0
2016-12-30T03:49:35.339Z,0
2016-12-30T03:50:34.930Z,0
2016-12-30T03:51:34.901Z,0
2016-12-30T03:52:34.888Z,0
2016-12-30T03:53:34.867Z,0
2016-12-30T03:54:34.842Z,0
2016-12-30T03:55:34.832Z,0
2016-12-30T03:56:34.811Z,0
2016-12-30T03:57:34.795Z,0
2016-12-30T03:58:35.172Z,0
2016-12-30T03:59:34.755Z,0
2016-12-30T04:00:34.739Z,0
2016-12-30T04:01:34.715Z,0
2016-12-30T04:02:34.692Z,0
2016-12-30T04:03:34.682Z,0
2016-12-30T04:04:34.662Z,0
2016-12-30T04:05:34.639Z,0
2016-12-30T04:06:34.624Z,0
2016-12-30T04:07:34.602Z,0
2016-12-30T04:08:34.586Z,0
2016-12-30T04:09:34.566Z,0
2016-12-30T04:10:34.550Z,0
2016-12-30T04:11:34.527Z,0
2016-12-30T04:12:34.508Z,0
2016-12-30T04:13:34.489Z,0
2016-12-30T04:14:34.471Z,0
2016-12-30T04:15:34.452Z,0
2016-12-30T04:16:34.436Z,0
2016-12-30T04:17:34.443Z,0
2016-12-30T04:18:34.399Z,0
2016-12-30T04:19:34.380Z,0
2016-12-30T04:20:34.360Z,0
2016-12-30T04:21:34.339Z,0
2016-12-30T04:22:34.317Z,0
2016-12-30T04:23:34.298Z,0
2016-12-30T04:24:34.278Z,0
2016-12-30T04:25:34.266Z,0
2016-12-30T04:26:34.242Z,0
2016-12-30T04:27:34.225Z,0
2016-12-30T04:28:34.212Z,0
2016-12-30T04:29:34.187Z,0
2016-12-30T04:30:34.173Z,0
2016-12-30T04:31:34.147Z,0
2016-12-30T04:32:34.132Z,0
2016-12-30T04:33:34.109Z,0
2016-12-30T04:34:34.087Z,0
2016-12-30T04:35:34.075Z,0
2016-12-30T04:36:34.065Z,0
2016-12-30T04:37:34.050Z,0
2016-12-30T04:38:34.016Z,0
2016-12-30T04:39:33.994Z,0
2016-12-30T04:40:33.977Z,0
2016-12-30T04:41:33.956Z,0
2016-12-30T04:42:33.965Z,0
2016-12-30T04:43:33.920Z,0
2016-12-30T04:44:33.900Z,0
2016-12-30T04:45:33.881Z,0
2016-12-30T04:46:33.862Z,0
2016-12-30T04:47:33.839Z,0
2016-12-30T04:48:33.844Z,0
2016-12-30T04:49:33.801Z,0
2016-12-30T04:50:33.787Z,0
2016-12-30T04:51:33.770Z,0
2016-12-30T04:52:34.152Z,0
2016-12-30T04:53:33.735Z,0
2016-12-30T04:54:33.708Z,0
2016-12-30T04:55:33.699Z,0
2016-12-30T04:56:33.673Z,0
2016-12-30T04:57:33.650Z,0
2016-12-30T04:58:33.632Z,0
2016-12-30T04:59:33.616Z,0
2016-12-30T05:00:33.594Z,0
2016-12-30T05:01:33.576Z,0
2016-12-30T05:02:33.555Z,0
2016-12-30T05:03:33.539Z,0
2016-12-30T05:04:33.530Z,0
2016-12-30T05:05:33.502Z,0
2016-12-30T05:06:33.480Z,0
2016-12-30T05:07:33.461Z,0
2016-12-30T05:08:33.439Z,0
2016-12-30T05:09:33.426Z,0
2016-12-30T05:10:33.406Z,0
2016-12-30T05:11:33.394Z,0
2016-12-30T05:12:33.365Z,0
2016-12-30T05:13:33.352Z,0
2016-12-30T05:14:33.331Z,0
2016-12-30T05:15:33.314Z,0
2016-12-30T05:16:33.292Z,0
2016-12-30T05:17:33.281Z,0
2016-12-30T05:18:33.252Z,0
2016-12-30T05:19:33.231Z,0
2016-12-30T05:20:33.216Z,0
2016-12-30T05:21:33.190Z,0
2016-12-30T05:22:33.173Z,0
2016-12-30T05:23:33.167Z,0
2016-12-30T05:24:33.131Z,0
2016-12-30T05:25:33.114Z,0
2016-12-30T05:26:33.102Z,0
2016-12-30T05:27:33.076Z,0
2016-12-30T05:28:33.058Z,0
2016-12-30T05:29:33.037Z,0
2016-12-30T05:30:33.024Z,0
2016-12-30T05:31:33.000Z,0
2016-12-30T05:32:32.979Z,0
2016-12-30T05:33:32.987Z,0
2016-12-30T05:34:32.943Z,0
2016-12-30T05:35:32.922Z,0
2016-12-30T05:36:32.903Z,0
2016-12-30T05:37:32.886Z,0
2016-12-30T05:38:32.871Z,0
2016-12-30T05:39:32.851Z,0
2016-12-30T05:40:32.829Z,0
2016-12-30T05:41:32.806Z,0
2016-12-30T05:42:32.795Z,0
2016-12-30T05:43:32.772Z,0
2016-12-30T05:44:32.752Z,0
2016-12-30T05:45:32.730Z,0
2016-12-30T05:46:32.710Z,0
2016-12-30T05:47:32.690Z,0
2016-12-30T05:48:32.669Z,0
2016-12-30T05:49:32.654Z,0
2016-12-30T05:50:32.640Z,0
2016-12-30T05:51:32.620Z,0
2016-12-30T05:52:32.597Z,0
2016-12-30T05:53:32.575Z,0
2016-12-30T05:54:32.559Z,0
2016-12-30T05:55:32.563Z,0
2016-12-30T05:56:32.519Z,0
2016-12-30T05:57:32.498Z,0
2016-12-30T05:58:32.477Z,0
2016-12-30T05:59:32.456Z,0
2016-12-30T06:00:32.440Z,0
2016-12-30T06:01:32.421Z,0
2016-12-30T06:02:32.400Z,0
2016-12-30T06:03:32.382Z,0
2016-12-30T06:04:32.364Z,0
2016-12-30T06:05:32.344Z,0
2016-12-30T06:06:32.327Z,0
2016-12-30T06:07:32.308Z,0
2016-12-30T06:08:32.285Z,0
2016-12-30T06:09:32.265Z,0
2016-12-30T06:10:32.246Z,0
2016-12-30T06:11:32.242Z,0
2016-12-30T06:12:32.211Z,0
2016-12-30T06:13:32.188Z,0
2016-12-30T06:14:32.167Z,0
2016-12-30T06:15:32.158Z,0
2016-12-30T06:16:32.129Z,0
2016-12-30T06:17:32.118Z,0
2016-12-30T06:18:32.094Z,0
2016-12-30T06:19:32.121Z,0
2016-12-30T06:20:32.082Z,0
2016-12-30T06:21:32.037Z,0
2016-12-30T06:22:32.014Z,0
2016-12-30T06:23:32.397Z,0
2016-12-30T06:24:31.982Z,0
2016-12-30T06:25:31.961Z,0
2016-12-30T06:26:31.938Z,0
2016-12-30T06:27:31.924Z,0
2016-12-30T06:28:31.907Z,0
2016-12-30T06:29:31.913Z,0
2016-12-30T06:30:31.864Z,0
2016-12-30T06:31:31.839Z,0
2016-12-30T06:32:31.825Z,0
2016-12-30T06:33:31.839Z,0
2016-12-30T06:34:31.785Z,0
2016-12-30T06:35:31.768Z,0
2016-12-30T06:36:31.752Z,0
2016-12-30T06:37:31.729Z,0
2016-12-30T06:38:31.706Z,0
2016-12-30T06:39:31.696Z,0
2016-12-30T06:40:31.673Z,0
2016-12-30T06:41:31.654Z,0
2016-12-30T06:42:31.631Z,0
2016-12-30T06:43:31.623Z,0
2016-12-30T06:44:31.598Z,0
2016-12-30T06:45:31.975Z,0
2016-12-30T06:46:31.560Z,0
2016-12-30T06:47:31.542Z,0
2016-12-30T06:48:31.520Z,0
2016-12-30T06:49:31.507Z,0
2016-12-30T06:50:31.483Z,0
2016-12-30T06:51:31.468Z,0
2016-12-30T06:52:31.440Z,0
2016-12-30T06:53:31.430Z,0
2016-12-30T06:54:31.405Z,0
2016-12-30T06:55:31.385Z,0
2016-12-30T06:56:31.364Z,0
2016-12-30T06:57:31.357Z,0
2016-12-30T06:58:31.727Z,0
2016-12-30T06:59:31.709Z,0
2016-12-30T07:00:31.290Z,0
2016-12-30T07:01:31.270Z,0
2016-12-30T07:02:31.251Z,0
2016-12-30T07:03:31.228Z,0
2016-12-30T07:04:31.208Z,0
2016-12-30T07:05:31.192Z,5
2016-12-30T07:06:31.170Z,5
2016-12-30T07:07:31.156Z,5
2016-12-30T07:08:31.136Z,5
2016-12-30T07:09:31.514Z,5
2016-12-30T07:10:31.097Z,5
2016-12-30T07:11:31.079Z,5
2016-12-30T07:12:31.060Z,5
2016-12-30T07:13:31.054Z,5
2016-12-30T07:14:31.050Z,10
2016-12-30T07:15:31.022Z,10
2016-12-30T07:16:30.981Z,10
2016-12-30T07:17:30.962Z,10
2016-12-30T07:18:30.945Z,10
2016-12-30T07:19:30.927Z,10
2016-12-30T07:20:30.905Z,10
2016-12-30T07:21:30.883Z,15
2016-12-30T07:22:30.870Z,15
2016-12-30T07:23:30.857Z,15
2016-12-30T07:24:30.826Z,15
2016-12-30T07:25:30.815Z,15
2016-12-30T07:26:30.788Z,15
2016-12-30T07:27:30.769Z,20
2016-12-30T07:28:30.754Z,20
2016-12-30T07:29:30.729Z,20
2016-12-30T07:30:30.714Z,20
2016-12-30T07:31:30.726Z,20
2016-12-30T07:32:30.679Z,20
2016-12-30T07:33:30.660Z,25
2016-12-30T07:34:30.639Z,25
2016-12-30T07:35:30.616Z,25
2016-12-30T07:36:30.599Z,25
2016-12-30T07:37:30.587Z,25
2016-12-30T07:38:30.563Z,25
2016-12-30T07:39:30.542Z,30
2016-12-30T07:40:30.522Z,30
2016-12-30T07:41:30.507Z,30
2016-12-30T07:42:30.485Z,30
2016-12-30T07:43:30.465Z,30
2016-12-30T07:44:30.446Z,30
2016-12-30T07:45:30.430Z,35
2016-12-30T07:46:30.432Z,35
2016-12-30T07:47:30.391Z,35
2016-12-30T07:48:30.372Z,35
2016-12-30T07:49:30.356Z,35
2016-12-30T07:50:30.340Z,35
2016-12-30T07:51:30.313Z,35
2016-12-30T07:52:30.297Z,40
2016-12-30T07:53:30.311Z,40
2016-12-30T07:54:30.260Z,40
2016-12-30T07:55:30.234Z,40
2016-12-30T07:56:30.222Z,40
2016-12-30T07:57:30.200Z,40
2016-12-30T07:58:30.180Z,40
2016-12-30T07:59:30.165Z,45
2016-12-30T08:00:30.142Z,45
2016-12-30T08:01:30.125Z,45
2016-12-30T08:02:30.106Z,45
2016-12-30T08:03:30.115Z,45
2016-12-30T08:04:30.066Z,45
2016-12-30T08:05:30.050Z,45
2016-12-30T08:06:30.032Z,50
2016-12-30T08:07:30.007Z,50
2016-12-30T08:08:29.994Z,50
2016-12-30T08:09:29.978Z,50
2016-12-30T08:10:29.952Z,50
2016-12-30T08:11:29.933Z,50
2016-12-30T08:12:29.916Z,50
2016-12-30T08:13:29.892Z,50
2016-12-30T08:14:29.878Z,55
2016-12-30T08:15:29.856Z,55
2016-12-30T08:16:29.836Z,55
2016-12-30T08:17:29.818Z,55
2016-12-30T08:18:29.827Z,55
2016-12-30T08:19:29.785Z,55
2016-12-30T08:20:29.764Z,55
2016-12-30T08:21:29.742Z,55
2016-12-30T08:22:29.726Z,55
2016-12-30T08:23:29.707Z,55
2016-12-30T08:24:29.686Z,55
2016-12-30T08:25:29.665Z,60
2016-12-30T08:26:29.651Z,60
2016-12-30T08:27:29.631Z,60
2016-12-30T08:28:29.613Z,60
2016-12-30T08:29:29.590Z,60
2016-12-30T08:30:29.572Z,60
2016-12-30T08:31:29.552Z,60
2016-12-30T08:32:29.536Z,60
2016-12-30T08:33:29.551Z,60
2016-12-30T08:34:29.496Z,60
2016-12-30T08:35:29.480Z,60
2016-12-30T08:36:29.459Z,60
2016-12-30T08:37:29.442Z,60
2016-12-30T08:38:29.422Z,60
2016-12-30T08:39:29.403Z,65
2016-12-30T08:40:29.380Z,65
2016-12-30T08:41:29.365Z,65
2016-12-30T08:42:29.346Z,65
2016-12-30T08:43:29.333Z,65
2016-12-30T08:44:29.340Z,65
2016-12-30T08:45:29.291Z,65
2016-12-30T08:46:29.267Z,65
2016-12-30T08:47:29.279Z,65
2016-12-30T08:48:29.241Z,65
2016-12-30T08:49:29.214Z,65
2016-12-30T08:50:29.197Z,65
2016-12-30T08:51:29.180Z,65
2016-12-30T08:52:29.157Z,65
2016-12-30T08:53:29.144Z,65
2016-12-30T08:54:29.121Z,65
2016-12-30T08:55:29.101Z,65
2016-12-30T08:56:29.086Z,70
2016-12-30T08:57:29.063Z,70
2016-12-30T08:58:29.049Z,70
2016-12-30T08:59:29.028Z,70
2016-12-30T09:00:29.010Z,70
2016-12-30T09:01:28.991Z,70
2016-12-30T09:02:29.370Z,70
2016-12-30T09:03:28.952Z,70
2016-12-30T09:04:28.937Z,70
2016-12-30T09:05:28.921Z,70
2016-12-30T09:06:28.895Z,70
2016-12-30T09:07:28.884Z,70
2016-12-30T09:08:28.865Z,70
2016-12-30T09:09:29.907Z,70
2016-12-30T09:10:28.970Z,70
2016-12-30T09:11:28.814Z,75
2016-12-30T09:12:28.787Z,75
2016-12-30T09:13:28.772Z,75
2016-12-30T09:14:28.757Z,75
2016-12-30T09:15:28.731Z,75
2016-12-30T09:16:30.081Z,75
2016-12-30T09:17:29.134Z,75
2016-12-30T09:18:28.684Z,75
2016-12-30T09:19:28.941Z,75
2016-12-30T09:20:28.642Z,75
2016-12-30T09:21:28.629Z,75
2016-12-30T09:22:28.605Z,75
2016-12-30T09:23:28.587Z,75
2016-12-30T09:24:28.568Z,75
2016-12-30T09:25:28.548Z,75
2016-12-30T09:26:28.584Z,75
2016-12-30T09:27:28.541Z,75
2016-12-30T09:28:28.497Z,75
2016-12-30T09:29:28.485Z,75
2016-12-30T09:30:28.458Z,75
2016-12-30T09:31:28.446Z,75
2016-12-30T09:32:28.426Z,75
2016-12-30T09:33:28.403Z,75
2016-12-30T09:34:28.387Z,75
2016-12-30T09:35:28.768Z,75
2016-12-30T09:36:28.350Z,75
2016-12-30T09:37:28.332Z,75
2016-12-30T09:38:28.316Z,75
2016-12-30T09:39:28.297Z,75
2016-12-30T09:40:28.280Z,75
2016-12-30T09:41:28.261Z,75
2016-12-30T09:42:28.247Z,75
2016-12-30T09:43:28.235Z,75
2016-12-30T09:44:28.209Z,75
2016-12-30T09:45:28.195Z,75
2016-12-30T09:46:28.172Z,75
2016-12-30T09:47:28.158Z,75
2016-12-30T09:48:28.143Z,75
2016-12-30T09:49:28.122Z,75
2016-12-30T09:50:28.099Z,80
2016-12-30T09:51:28.085Z,80
2016-12-30T09:52:28.098Z,80
2016-12-30T09:53:28.048Z,80
2016-12-30T09:54:28.032Z,80
2016-12-30T09:55:28.015Z,80
2016-12-30T09:56:27.991Z,80
2016-12-30T09:57:27.976Z,80
2016-12-30T09:58:27.963Z,80
2016-12-30T09:59:27.941Z,80
2016-12-30T10:00:27.924Z,80
2016-12-30T10:01:27.905Z,80
2016-12-30T10:02:27.887Z,80
2016-12-30T10:03:27.872Z,80
2016-12-30T10:04:27.857Z,80
2016-12-30T10:05:28.070Z,80
2016-12-30T10:06:27.896Z,80
2016-12-30T10:07:27.803Z,80
2016-12-30T10:08:27.788Z,80
2016-12-30T10:09:27.765Z,80
2016-12-30T10:10:27.814Z,80
2016-12-30T10:11:27.729Z,80
2016-12-30T10:12:27.721Z,80
2016-12-30T10:13:27.748Z,80
2016-12-30T10:14:27.769Z,80
2016-12-30T10:15:27.667Z,80
2016-12-30T10:16:27.641Z,80
2016-12-30T10:17:27.626Z,80
2016-12-30T10:18:27.613Z,80
2016-12-30T10:19:27.591Z,85
2016-12-30T10:20:27.572Z,85
2016-12-30T10:21:27.557Z,85
2016-12-30T10:22:27.544Z,85
2016-12-30T10:23:27.522Z,85
2016-12-30T10:24:27.505Z,85
2016-12-30T10:25:27.486Z,85
2016-12-30T10:26:27.474Z,85
2016-12-30T10:27:27.451Z,85
2016-12-30T10:28:27.433Z,85
2016-12-30T10:29:27.419Z,85
2016-12-30T10:30:27.403Z,85
2016-12-30T10:31:27.382Z,85
2016-12-30T10:32:27.368Z,85
2016-12-30T10:33:27.346Z,85
2016-12-30T10:34:27.328Z,85
2016-12-30T10:35:27.321Z,85
2016-12-30T10:36:27.296Z,85
2016-12-30T10:37:27.277Z,85
2016-12-30T10:38:27.268Z,85
2016-12-30T10:39:27.245Z,85
2016-12-30T10:40:27.249Z,85
2016-12-30T10:41:27.208Z,85
2016-12-30T10:42:27.195Z,85
2016-12-30T10:43:27.574Z,85
2016-12-30T10:44:27.156Z,85
2016-12-30T10:45:27.151Z,85
2016-12-30T10:46:27.124Z,85
2016-12-30T10:47:27.152Z,85
2016-12-30T10:48:27.492Z,85
2016-12-30T10:49:27.078Z,85
2016-12-30T10:50:27.851Z,85
2016-12-30T10:51:27.039Z,85
2016-12-30T10:52:27.022Z,85
2016-12-30T10:53:27.008Z,85
2016-12-30T10:54:26.990Z,85
2016-12-30T10:55:26.972Z,85
2016-12-30T10:56:27.355Z,85
2016-12-30T10:57:26.945Z,85
2016-12-30T10:58:26.927Z,85
2016-12-30T10:59:26.907Z,85
2016-12-30T11:00:26.895Z,85
2016-12-30T11:01:26.870Z,85
2016-12-30T11:02:26.855Z,85
2016-12-30T11:03:26.836Z,85
2016-12-30T11:04:26.825Z,85
2016-12-30T11:05:26.806Z,85
2016-12-30T11:06:26.790Z,85
2016-12-30T11:07:26.775Z,85
2016-12-30T11:08:26.763Z,85
2016-12-30T11:09:26.740Z,85
2016-12-30T11:10:26.730Z,90
2016-12-30T11:11:27.106Z,90
2016-12-30T11:12:26.695Z,90
2016-12-30T11:13:26.680Z,90
2016-12-30T11:14:26.663Z,90
2016-12-30T11:15:26.644Z,90
2016-12-30T11:16:26.621Z,85
2016-12-30T11:17:26.606Z,85
2016-12-30T11:18:26.592Z,85
2016-12-30T11:19:26.572Z,85
2016-12-30T11:20:26.555Z,85
2016-12-30T11:21:26.542Z,85
2016-12-30T11:22:26.520Z,85
2016-12-30T11:23:26.505Z,85
2016-12-30T11:24:26.492Z,85
2016-12-30T11:25:26.473Z,85
2016-12-30T11:26:26.465Z,85
2016-12-30T11:27:26.445Z,85
2016-12-30T11:28:26.423Z,85
2016-12-30T11:29:26.409Z,85
2016-12-30T11:30:26.400Z,85
2016-12-30T11:31:26.375Z,85
2016-12-30T11:32:26.362Z,85
2016-12-30T11:33:26.343Z,85
2016-12-30T11:34:26.349Z,85
2016-12-30T11:35:26.309Z,85
2016-12-30T11:36:26.299Z,85
2016-12-30T11:37:26.277Z,85
2016-12-30T11:38:26.261Z,85
2016-12-30T11:39:26.244Z,85
2016-12-30T11:40:26.229Z,85
2016-12-30T11:41:26.212Z,85
2016-12-30T11:42:26.192Z,85
2016-12-30T11:43:26.184Z,85
2016-12-30T11:44:26.169Z,85
2016-12-30T11:45:26.146Z,85
2016-12-30T11:46:26.137Z,85
2016-12-30T11:47:26.118Z,85
2016-12-30T11:48:26.133Z,85
2016-12-30T11:49:26.084Z,85
2016-12-30T11:50:26.062Z,85
2016-12-30T11:51:26.051Z,85
2016-12-30T11:52:26.035Z,85
2016-12-30T11:53:26.044Z,85
2016-12-30T11:54:26.001Z,85
2016-12-30T11:55:25.979Z,85
2016-12-30T11:56:25.975Z,85
2016-12-30T11:57:25.949Z,85
2016-12-30T11:58:25.938Z,85
2016-12-30T11:59:25.919Z,85
2016-12-30T12:00:25.906Z,85
2016-12-30T12:01:25.884Z,85
2016-12-30T12:02:25.872Z,85
2016-12-30T12:03:25.853Z,85
2016-12-30T12:04:25.837Z,85
2016-12-30T12:05:25.825Z,85
2016-12-30T12:06:25.801Z,85
2016-12-30T12:07:25.793Z,85
2016-12-30T12:08:25.773Z,85
2016-12-30T12:09:25.758Z,85
2016-12-30T12:10:25.744Z,80
2016-12-30T12:11:25.724Z,80
2016-12-30T12:12:25.711Z,80
2016-12-30T12:13:25.694Z,80
2016-12-30T12:14:25.678Z,80
2016-12-30T12:15:25.660Z,80
2016-12-30T12:16:25.645Z,80
2016-12-30T12:17:25.629Z,80
2016-12-30T12:18:25.611Z,80
2016-12-30T12:19:25.597Z,80
2016-12-30T12:20:25.610Z,80
2016-12-30T12:21:25.571Z,80
2016-12-30T12:22:25.947Z,80
2016-12-30T12:23:25.534Z,80
2016-12-30T12:24:25.521Z,80
2016-12-30T12:25:25.497Z,80
2016-12-30T12:26:25.491Z,80
2016-12-30T12:27:25.471Z,80
2016-12-30T12:28:25.458Z,80
2016-12-30T12:29:25.441Z,80
2016-12-30T12:30:25.424Z,80
2016-12-30T12:31:25.815Z,80
2016-12-30T12:32:25.397Z,80
2016-12-30T12:33:25.374Z,80
2016-12-30T12:34:25.381Z,80
2016-12-30T12:35:25.341Z,80
2016-12-30T12:36:25.731Z,80
2016-12-30T12:37:25.314Z,80
2016-12-30T12:38:25.305Z,80
2016-12-30T12:39:25.284Z,80
2016-12-30T12:40:25.267Z,80
2016-12-30T12:41:25.283Z,80
2016-12-30T12:42:25.233Z,80
2016-12-30T12:43:25.226Z,80
2016-12-30T12:44:25.206Z,80
2016-12-30T12:45:25.192Z,75
2016-12-30T12:46:25.179Z,75
2016-12-30T12:47:25.206Z,75
2016-12-30T12:48:25.141Z,75
2016-12-30T12:49:25.131Z,75
2016-12-30T12:50:25.115Z,75
2016-12-30T12:51:25.099Z,75
2016-12-30T12:52:25.082Z,75
2016-12-30T12:53:25.089Z,75
2016-12-30T12:54:25.055Z,75
2016-12-30T12:55:25.033Z,75
2016-12-30T12:56:25.017Z,75
2016-12-30T12:57:25.002Z,75
2016-12-30T12:58:24.984Z,75
2016-12-30T12:59:24.968Z,75
2016-12-30T13:00:25.654Z,75
2016-12-30T13:01:25.595Z,75
2016-12-30T13:02:25.506Z,75
2016-12-30T13:03:25.697Z,75
2016-12-30T13:04:25.502Z,75
2016-12-30T13:05:25.650Z,75
2016-12-30T13:06:25.729Z,75
2016-12-30T13:07:25.691Z,75
2016-12-30T13:08:25.489Z,70
2016-12-30T13:09:25.828Z,70
2016-12-30T13:10:25.869Z,70
2016-12-30T13:11:25.460Z,70
2016-12-30T13:12:25.496Z,70
2016-12-30T13:13:25.357Z,70
2016-12-30T13:14:25.437Z,70
2016-12-30T13:15:25.358Z,70
2016-12-30T13:16:25.481Z,70
2016-12-30T13:17:25.358Z,70
2016-12-30T13:18:25.485Z,70
2016-12-30T13:19:25.190Z,70
2016-12-30T13:20:25.274Z,70
2016-12-30T13:21:26.011Z,70
2016-12-30T13:22:25.724Z,70
2016-12-30T13:23:25.242Z,70
2016-12-30T13:24:25.352Z,70
2016-12-30T13:25:25.361Z,70
2016-12-30T13:26:25.448Z,70
2016-12-30T13:27:25.246Z,70
2016-12-30T13:28:25.264Z,65
2016-12-30T13:29:25.259Z,65
2016-12-30T13:30:25.544Z,65
2016-12-30T13:31:25.113Z,65
2016-12-30T13:32:25.170Z,65
2016-12-30T13:33:24.440Z,65
2016-12-30T13:34:24.425Z,65
2016-12-30T13:35:24.406Z,65
2016-12-30T13:36:24.392Z,65
2016-12-30T13:37:24.406Z,65
2016-12-30T13:38:24.365Z,65
2016-12-30T13:39:24.340Z,65
2016-12-30T13:40:24.331Z,65
2016-12-30T13:41:24.310Z,65
2016-12-30T13:42:24.296Z,65
2016-12-30T13:43:24.283Z,65
2016-12-30T13:44:24.267Z,65
2016-12-30T13:45:24.259Z,60
2016-12-30T13:46:24.232Z,60
2016-12-30T13:47:24.217Z,60
2016-12-30T13:48:24.202Z,60
2016-12-30T13:49:24.187Z,60
2016-12-30T13:50:24.174Z,60
2016-12-30T13:51:24.159Z,60
2016-12-30T13:52:24.140Z,60
2016-12-30T13:53:24.125Z,60
2016-12-30T13:54:24.110Z,60
2016-12-30T13:55:24.097Z,60
2016-12-30T13:56:24.079Z,60
2016-12-30T13:57:24.061Z,60
2016-12-30T13:58:24.068Z,55
2016-12-30T13:59:24.029Z,55
2016-12-30T14:00:24.013Z,55
2016-12-30T14:01:24.001Z,55
2016-12-30T14:02:23.982Z,55
2016-12-30T14:03:23.965Z,55
2016-12-30T14:04:23.951Z,55
2016-12-30T14:05:23.933Z,55
2016-12-30T14:06:23.920Z,55
2016-12-30T14:07:23.901Z,55
2016-12-30T14:08:23.887Z,55
2016-12-30T14:09:23.870Z,50
2016-12-30T14:10:23.850Z,50
2016-12-30T14:11:23.839Z,50
2016-12-30T14:12:23.821Z,50
2016-12-30T14:13:23.813Z,50
2016-12-30T14:14:23.791Z,50
2016-12-30T14:15:23.779Z,50
2016-12-30T14:16:23.790Z,50
2016-12-30T14:17:23.741Z,50
2016-12-30T14:18:23.727Z,50
2016-12-30T14:19:23.708Z,45
2016-12-30T14:20:23.694Z,45
2016-12-30T14:21:23.681Z,45
2016-12-30T14:22:23.662Z,45
2016-12-30T14:23:23.647Z,45
2016-12-30T14:24:23.630Z,45
2016-12-30T14:25:23.614Z,45
2016-12-30T14:26:23.598Z,45
2016-12-30T14:27:23.582Z,40
2016-12-30T14:28:23.565Z,40
2016-12-30T14:29:23.549Z,40
2016-12-30T14:30:23.539Z,40
2016-12-30T14:31:23.518Z,40